Time;durP1;ratioP1;P1;durP2;ratioP2;P2;SDS_P1;SDS_P2;PMS_P1;PMS_P2;Temp;Humidity;BMP_temperature;BMP_pressure;BME280_temperature;BME280_humidity;BME280_pressure;Samples;Min_cycle;Max_cycle;Signal;HPM_P1;HPM_P2
2022/03/12 00:00:30;;;;;;;6.03;5.18;;;14.10;36.50;;;;;;5078220;28;20070;-73
2022/03/12 00:02:58;;;;;;;7.28;5.13;;;14.10;36.50;;;;;;5077582;28;20435;-73
2022/03/12 00:05:27;;;;;;;8.82;5.28;;;14.10;36.30;;;;;;5077440;28;20110;-73
2022/03/12 00:07:53;;;;;;;10.27;5.68;;;14.10;36.30;;;;;;5077479;28;20088;-76
2022/03/12 00:10:21;;;;;;;7.18;5.38;;;14.10;36.40;;;;;;5077810;28;20150;-76
2022/03/12 00:12:48;;;;;;;7.30;5.45;;;14.10;36.40;;;;;;5060600;28;20444;-77
2022/03/12 00:15:14;;;;;;;6.03;5.03;;;14.10;36.40;;;;;;5077584;28;20044;-75
2022/03/12 00:17:45;;;;;;;6.93;4.43;;;14.10;36.30;;;;;;5059979;28;20048;-76
2022/03/12 00:20:16;;;;;;;6.35;4.78;;;14.10;36.10;;;;;;5077226;28;20044;-78
2022/03/12 00:22:46;;;;;;;8.50;5.13;;;14.00;36.00;;;;;;5077340;28;20095;-76
2022/03/12 00:25:18;;;;;;;9.52;6.05;;;14.00;36.00;;;;;;5076922;28;20079;-76
2022/03/12 00:27:45;;;;;;;6.03;4.90;;;14.10;36.10;;;;;;5076594;28;20321;-76
2022/03/12 00:30:17;;;;;;;7.05;5.18;;;14.00;36.10;;;;;;5077706;28;20076;-75
2022/03/12 00:32:43;;;;;;;8.73;5.55;;;14.00;36.20;;;;;;5077423;28;20371;-75
2022/03/12 00:35:09;;;;;;;10.48;5.20;;;14.00;36.10;;;;;;5077392;28;20040;-76
2022/03/12 00:37:35;;;;;;;7.93;5.07;;;14.00;36.00;;;;;;5077467;28;20371;-77
2022/03/12 00:40:01;;;;;;;6.55;4.93;;;13.90;35.90;;;;;;5077214;28;20052;-76
2022/03/12 00:42:26;;;;;;;6.90;5.15;;;13.90;35.90;;;;;;5077384;28;20052;-74
2022/03/12 00:44:52;;;;;;;8.75;5.40;;;13.90;35.90;;;;;;5059490;28;20040;-76
2022/03/12 00:47:18;;;;;;;6.07;4.55;;;13.90;36.00;;;;;;5076998;28;20088;-75
2022/03/12 00:49:45;;;;;;;7.20;5.10;;;13.90;36.00;;;;;;5076775;28;20043;-77
2022/03/12 00:52:11;;;;;;;8.75;5.00;;;13.90;36.00;;;;;;5077350;28;20040;-75
2022/03/12 00:54:36;;;;;;;7.18;5.22;;;13.90;35.90;;;;;;5076577;28;20470;-75
2022/03/12 00:57:03;;;;;;;6.63;5.10;;;13.90;35.80;;;;;;5059102;28;20052;-76
2022/03/12 00:59:28;;;;;;;9.05;5.15;;;13.80;35.70;;;;;;5076884;28;20110;-77
2022/03/12 01:01:54;;;;;;;6.55;5.03;;;13.90;35.80;;;;;;5077114;28;20044;-75
2022/03/12 01:04:20;;;;;;;6.57;4.72;;;13.80;35.80;;;;;;5059023;28;20127;-74
2022/03/12 01:06:46;;;;;;;7.32;5.32;;;13.80;35.80;;;;;;5073188;28;20131;-74
2022/03/12 01:09:13;;;;;;;7.03;5.15;;;13.80;35.80;;;;;;5076013;28;20055;-76
2022/03/12 01:11:40;;;;;;;8.45;5.30;;;13.80;35.90;;;;;;5076887;28;20422;-75
2022/03/12 01:14:07;;;;;;;5.88;5.15;;;13.80;35.90;;;;;;5076405;28;20043;-77
2022/03/12 01:16:33;;;;;;;7.72;5.15;;;13.80;35.90;;;;;;5076115;28;20053;-74
2022/03/12 01:18:59;;;;;;;5.72;4.95;;;13.80;35.80;;;;;;5076961;28;20040;-72
2022/03/12 01:21:26;;;;;;;6.53;4.93;;;13.70;35.70;;;;;;5075920;28;20098;-72
2022/03/12 01:23:52;;;;;;;7.60;5.10;;;13.70;35.80;;;;;;5059212;28;20044;-73
2022/03/12 01:26:19;;;;;;;10.32;5.25;;;13.70;35.70;;;;;;5076236;28;20052;-73
2022/03/12 01:28:46;;;;;;;7.20;4.72;;;13.70;35.70;;;;;;5076224;28;20340;-74
2022/03/12 01:31:12;;;;;;;8.38;5.38;;;13.70;35.70;;;;;;5076063;28;20127;-72
2022/03/12 01:33:38;;;;;;;7.30;4.88;;;13.70;35.70;;;;;;5076116;28;20051;-72
2022/03/12 01:36:05;;;;;;;6.50;4.88;;;13.70;35.80;;;;;;5076328;28;20121;-74
2022/03/12 01:38:53;;;;;;;7.30;5.22;;;13.70;35.70;;;;;;5076068;28;20132;-73
2022/03/12 01:41:29;;;;;;;6.55;5.10;;;13.70;35.70;;;;;;5075802;28;20048;-74
2022/03/12 01:43:57;;;;;;;6.25;5.05;;;13.60;35.70;;;;;;5075624;28;20482;-73
2022/03/12 01:46:34;;;;;;;9.32;5.63;;;13.60;35.80;;;;;;5058366;28;20052;-72
2022/03/12 01:49:04;;;;;;;8.80;5.32;;;13.60;35.70;;;;;;5058214;28;20048;-72
2022/03/12 01:51:30;;;;;;;8.15;5.28;;;13.60;35.70;;;;;;5075507;28;20487;-73
2022/03/12 01:53:56;;;;;;;7.10;5.20;;;13.60;35.80;;;;;;5058331;28;20051;-74
2022/03/12 01:56:27;;;;;;;6.60;5.28;;;13.60;35.80;;;;;;5058110;28;20052;-73
2022/03/12 01:58:54;;;;;;;6.88;5.25;;;13.60;35.80;;;;;;5075552;28;20050;-72
2022/03/12 02:01:21;;;;;;;13.10;5.75;;;13.50;35.70;;;;;;5075248;28;20097;-74
2022/03/12 02:03:47;;;;;;;7.22;4.90;;;13.50;35.60;;;;;;5057780;28;20060;-72
2022/03/12 02:06:19;;;;;;;5.80;4.32;;;13.50;35.60;;;;;;5075560;28;20424;-73
2022/03/12 02:08:48;;;;;;;7.15;4.88;;;13.50;35.70;;;;;;5075337;28;20048;-73
2022/03/12 02:11:20;;;;;;;6.28;4.82;;;13.50;35.60;;;;;;5075139;28;20413;-73
2022/03/12 02:13:46;;;;;;;7.55;5.22;;;13.50;35.70;;;;;;5076127;28;20048;-72
2022/03/12 02:16:12;;;;;;;6.13;4.95;;;13.40;35.50;;;;;;5096112;28;20367;-72
2022/03/12 02:18:39;;;;;;;7.82;5.38;;;13.50;35.60;;;;;;5095904;28;20048;-72
2022/03/12 02:21:05;;;;;;;6.20;5.50;;;13.50;35.60;;;;;;5095358;28;20055;-72
2022/03/12 02:23:50;;;;;;;8.18;4.93;;;13.50;35.60;;;;;;5077659;28;20086;-73
2022/03/12 02:26:15;;;;;;;7.03;5.10;;;13.40;35.40;;;;;;5095500;28;20429;-73
2022/03/12 02:28:41;;;;;;;7.75;5.82;;;13.40;35.40;;;;;;5095410;28;20075;-72
2022/03/12 02:31:08;;;;;;;8.80;5.43;;;13.40;35.40;;;;;;5095360;28;20453;-73
2022/03/12 02:33:33;;;;;;;7.07;5.47;;;13.40;35.40;;;;;;5095939;28;20048;-75
2022/03/12 02:35:59;;;;;;;6.38;5.15;;;13.40;35.40;;;;;;5095410;28;20052;-76
2022/03/12 02:38:27;;;;;;;8.60;5.28;;;13.40;35.40;;;;;;5095400;28;20051;-77
2022/03/12 02:40:54;;;;;;;6.95;5.10;;;13.40;35.50;;;;;;5062970;28;20364;-75
2022/03/12 02:43:26;;;;;;;7.35;5.32;;;13.40;35.40;;;;;;5074950;28;20049;-75
2022/03/12 02:45:55;;;;;;;6.70;5.20;;;13.40;35.30;;;;;;5075296;28;20123;-76
2022/03/12 02:48:23;;;;;;;8.15;4.97;;;13.40;35.30;;;;;;5075238;28;20347;-76
2022/03/12 02:50:51;;;;;;;7.03;5.20;;;13.40;35.20;;;;;;5059927;28;20052;-75
2022/03/12 02:53:17;;;;;;;7.38;5.28;;;13.30;35.20;;;;;;5078757;28;20040;-74
2022/03/12 02:55:44;;;;;;;6.40;5.38;;;13.30;35.20;;;;;;5079386;28;20048;-76
2022/03/12 02:58:10;;;;;;;7.00;4.90;;;13.30;35.30;;;;;;5079348;28;20044;-75
2022/03/12 03:00:37;;;;;;;6.88;5.28;;;13.30;35.30;;;;;;5078748;28;20040;-72
2022/03/12 03:03:05;;;;;;;7.80;5.68;;;13.30;35.20;;;;;;5061184;28;20456;-73
2022/03/12 03:08:02;;;;;;;8.27;6.45;;;13.30;35.20;;;;;;5078872;28;20071;-71
2022/03/12 03:10:30;;;;;;;7.00;4.97;;;13.30;35.10;;;;;;5061259;28;20044;-72
2022/03/12 03:12:58;;;;;;;6.70;5.10;;;13.30;35.20;;;;;;5078913;28;20067;-73
2022/03/12 03:15:25;;;;;;;10.40;5.00;;;13.30;35.00;;;;;;5078880;28;20123;-73
2022/03/12 03:17:52;;;;;;;9.63;5.85;;;13.30;35.00;;;;;;5061207;28;20047;-71
2022/03/12 03:20:19;;;;;;;8.00;5.70;;;13.20;35.00;;;;;;5060801;28;20044;-72
2022/03/12 03:22:44;;;;;;;9.07;5.65;;;13.20;35.20;;;;;;5078306;28;20044;-72
2022/03/12 03:25:10;;;;;;;9.85;5.63;;;13.30;35.20;;;;;;5078270;28;20110;-73
2022/03/12 03:27:35;;;;;;;11.18;6.03;;;13.30;35.20;;;;;;5078466;28;20087;-74
2022/03/12 03:30:01;;;;;;;9.73;5.85;;;13.20;35.20;;;;;;5078431;28;20048;-73
2022/03/12 03:32:27;;;;;;;9.45;5.90;;;13.20;35.40;;;;;;5078538;28;20432;-75
2022/03/12 03:34:53;;;;;;;7.70;5.85;;;13.20;35.50;;;;;;5060741;28;20471;-74
2022/03/12 03:37:18;;;;;;;8.48;6.13;;;13.20;35.50;;;;;;5078546;28;20371;-73
2022/03/12 03:39:44;;;;;;;10.38;6.50;;;13.20;35.70;;;;;;5060472;28;20044;-72
2022/03/12 03:42:19;;;;;;;8.07;5.60;;;13.20;35.70;;;;;;5060668;28;20489;-72
2022/03/12 03:44:45;;;;;;;10.48;6.80;;;13.20;35.80;;;;;;5060946;28;20067;-73
2022/03/12 03:47:10;;;;;;;8.23;6.30;;;13.20;35.90;;;;;;5060507;28;20053;-72
2022/03/12 03:49:37;;;;;;;10.60;6.85;;;13.20;35.90;;;;;;5078153;28;20353;-72
2022/03/12 03:52:03;;;;;;;8.65;6.35;;;13.20;36.00;;;;;;5078297;28;20480;-74
2022/03/12 03:54:29;;;;;;;9.52;6.35;;;13.20;35.90;;;;;;5060880;28;20050;-72
2022/03/12 03:56:55;;;;;;;8.18;6.15;;;13.20;36.00;;;;;;5077701;28;20370;-72
2022/03/12 03:59:20;;;;;;;9.63;6.45;;;13.20;36.10;;;;;;5077970;28;20141;-72
2022/03/12 04:01:46;;;;;;;10.18;6.30;;;13.20;36.30;;;;;;5076529;28;20055;-72
2022/03/12 04:04:12;;;;;;;8.85;6.53;;;13.10;36.30;;;;;;5077474;28;20098;-72
2022/03/12 04:06:39;;;;;;;9.02;6.45;;;13.10;36.50;;;;;;5077572;28;20447;-72
2022/03/12 04:09:05;;;;;;;8.93;6.60;;;13.20;36.90;;;;;;5060382;28;20048;-72
2022/03/12 04:11:33;;;;;;;9.40;6.97;;;13.20;37.10;;;;;;5077648;28;20062;-72
2022/03/12 04:13:59;;;;;;;9.90;6.70;;;13.10;37.20;;;;;;5078388;28;20313;-73
2022/03/12 04:16:25;;;;;;;10.20;6.90;;;13.10;37.50;;;;;;5077805;28;20413;-74
2022/03/12 04:18:51;;;;;;;10.70;7.05;;;13.20;37.80;;;;;;5077292;28;20143;-73
2022/03/12 04:21:20;;;;;;;8.60;6.60;;;13.10;38.00;;;;;;5077568;28;20102;-72
2022/03/12 04:23:46;;;;;;;10.77;7.07;;;13.10;38.30;;;;;;5077353;28;20109;-73
2022/03/12 04:26:13;;;;;;;9.45;6.85;;;13.10;38.60;;;;;;5078134;28;20127;-72
2022/03/12 04:28:39;;;;;;;10.70;7.22;;;13.10;38.90;;;;;;5077594;28;20044;-74
2022/03/12 04:31:06;;;;;;;10.60;6.80;;;13.10;39.10;;;;;;5077453;28;20044;-72
2022/03/12 04:33:33;;;;;;;9.32;7.18;;;13.10;39.40;;;;;;5077504;28;20055;-75
2022/03/12 04:36:00;;;;;;;9.27;7.35;;;13.10;39.60;;;;;;5076817;28;20451;-72
2022/03/12 04:38:27;;;;;;;10.88;7.38;;;13.10;39.90;;;;;;5076952;28;20516;-76
2022/03/12 04:40:56;;;;;;;8.65;6.55;;;13.00;40.10;;;;;;5091768;28;20051;-75
2022/03/12 04:43:24;;;;;;;9.10;6.97;;;13.00;40.30;;;;;;5098108;28;20044;-75
2022/03/12 04:45:50;;;;;;;11.70;6.82;;;13.00;40.50;;;;;;5079101;28;20080;-75
2022/03/12 04:48:21;;;;;;;8.98;7.05;;;13.00;40.80;;;;;;5097336;28;20137;-74
2022/03/12 04:50:48;;;;;;;9.45;7.43;;;13.00;41.10;;;;;;5096890;28;20158;-74
2022/03/12 04:53:15;;;;;;;8.52;6.40;;;13.00;41.20;;;;;;5097159;28;20131;-74
2022/03/12 04:55:41;;;;;;;9.32;6.60;;;13.00;41.50;;;;;;5097130;28;20504;-74
2022/03/12 04:58:09;;;;;;;10.57;7.20;;;12.90;41.60;;;;;;5096853;28;20044;-75
2022/03/12 05:00:38;;;;;;;10.50;7.50;;;12.90;41.70;;;;;;5096765;28;20048;-74
2022/03/12 05:03:10;;;;;;;10.95;7.00;;;12.90;42.00;;;;;;5096716;28;20060;-74
2022/03/12 05:05:43;;;;;;;9.20;6.68;;;12.90;42.60;;;;;;5097519;28;20348;-76
2022/03/12 05:08:10;;;;;;;9.40;7.15;;;12.90;42.20;;;;;;5097060;28;20108;-74
2022/03/12 05:10:36;;;;;;;9.85;6.55;;;12.90;42.30;;;;;;5096654;28;20135;-74
2022/03/12 05:13:02;;;;;;;9.57;7.60;;;12.90;42.50;;;;;;5095846;28;20130;-75
2022/03/12 05:15:37;;;;;;;9.02;6.68;;;12.90;42.60;;;;;;5076056;28;20052;-74
2022/03/12 05:18:07;;;;;;;9.35;6.63;;;12.80;42.70;;;;;;5076630;28;20046;-75
2022/03/12 05:20:38;;;;;;;13.68;7.38;;;12.80;42.80;;;;;;5076435;28;20048;-76
2022/03/12 05:23:07;;;;;;;11.20;7.10;;;12.80;43.00;;;;;;5059465;28;20044;-75
2022/03/12 05:25:34;;;;;;;10.23;6.75;;;12.80;43.10;;;;;;5076428;28;20396;-73
2022/03/12 05:28:00;;;;;;;11.27;7.00;;;12.80;43.20;;;;;;5073086;28;20040;-74
2022/03/12 05:30:27;;;;;;;10.95;7.90;;;12.80;43.40;;;;;;5076141;28;20493;-77
2022/03/12 05:32:53;;;;;;;9.13;6.82;;;12.80;43.50;;;;;;5076194;28;20045;-78
2022/03/12 05:35:20;;;;;;;11.70;6.88;;;12.80;43.90;;;;;;5076037;28;20048;-77
2022/03/12 05:37:53;;;;;;;10.43;6.82;;;12.80;44.30;;;;;;5076175;28;20040;-75
2022/03/12 05:40:26;;;;;;;8.93;7.00;;;12.80;44.40;;;;;;5057962;28;20068;-77
2022/03/12 05:42:55;;;;;;;9.45;7.05;;;12.90;44.20;;;;;;5075784;28;20044;-75
2022/03/12 05:45:23;;;;;;;9.75;6.97;;;12.90;44.30;;;;;;5075648;28;20051;-73
2022/03/12 05:47:50;;;;;;;9.18;6.82;;;13.00;44.40;;;;;;5069188;28;20041;-77
2022/03/12 05:50:17;;;;;;;9.43;7.10;;;13.00;44.40;;;;;;5038099;28;20059;-74
2022/03/12 05:52:48;;;;;;;8.38;6.72;;;13.00;44.60;;;;;;5038042;28;20056;-79
2022/03/12 05:55:19;;;;;;;10.63;6.65;;;13.00;44.60;;;;;;5055567;28;20151;-74
2022/03/12 05:57:45;;;;;;;10.48;6.75;;;13.00;45.50;;;;;;5039001;28;20430;-72
2022/03/12 06:00:12;;;;;;;10.70;5.97;;;13.00;46.80;;;;;;5055503;28;20041;-78
2022/03/12 06:02:47;;;;;;;10.50;6.03;;;13.10;46.50;;;;;;5055410;28;20057;-79
2022/03/12 06:05:14;;;;;;;10.27;5.80;;;13.30;46.10;;;;;;5057711;28;20059;-73
2022/03/12 06:07:43;;;;;;;6.40;5.10;;;13.50;45.80;;;;;;5057638;28;20106;-70
2022/03/12 06:10:11;;;;;;;7.95;5.28;;;13.80;45.60;;;;;;5075269;28;20052;-76
2022/03/12 06:12:43;;;;;;;7.93;5.22;;;14.10;45.50;;;;;;5075051;28;20459;-74
2022/03/12 06:15:16;;;;;;;7.28;4.68;;;14.30;45.50;;;;;;5074002;28;20098;-75
2022/03/12 06:17:43;;;;;;;9.30;4.53;;;14.60;45.60;;;;;;5037556;28;20056;-75
2022/03/12 06:20:10;;;;;;;8.07;4.57;;;14.80;45.60;;;;;;5054912;28;20198;-75
2022/03/12 06:22:37;;;;;;;6.60;4.20;;;14.90;45.60;;;;;;5020186;28;20208;-79
2022/03/12 06:25:08;;;;;;;6.50;4.22;;;15.10;45.70;;;;;;5054369;28;20120;-75
2022/03/12 06:27:35;;;;;;;8.52;4.18;;;15.30;45.90;;;;;;5037655;28;20056;-77
2022/03/12 06:30:08;;;;;;;5.53;4.10;;;15.40;45.90;;;;;;5037333;28;20048;-75
2022/03/12 06:32:34;;;;;;;9.25;4.35;;;15.60;46.30;;;;;;5059248;28;20349;-76
2022/03/12 06:35:00;;;;;;;8.93;4.00;;;15.60;46.50;;;;;;5070959;28;20075;-78
2022/03/12 06:37:26;;;;;;;11.57;3.90;;;15.50;47.20;;;;;;5074134;28;20109;-76
2022/03/12 06:39:52;;;;;;;12.07;3.60;;;15.60;47.90;;;;;;5074882;28;20132;-75
2022/03/12 06:42:19;;;;;;;13.38;4.05;;;15.60;48.20;;;;;;5057857;28;20190;-74
2022/03/12 06:44:44;;;;;;;12.05;4.05;;;15.70;48.50;;;;;;5040743;28;20105;-74
2022/03/12 06:47:10;;;;;;;13.45;4.35;;;15.80;48.80;;;;;;5074457;28;20052;-74
2022/03/12 06:49:39;;;;;;;13.63;4.13;;;15.90;49.40;;;;;;5056253;28;20059;-75
2022/03/12 06:52:06;;;;;;;15.40;4.85;;;15.90;49.60;;;;;;5074685;28;20040;-76
2022/03/12 06:54:33;;;;;;;10.82;3.58;;;15.90;49.60;;;;;;5057422;28;20059;-76
2022/03/12 06:57:02;;;;;;;13.15;4.00;;;16.00;49.80;;;;;;5074767;28;20428;-74
2022/03/12 06:59:28;;;;;;;11.77;3.65;;;16.20;50.00;;;;;;5054144;28;20055;-76
2022/03/12 07:01:53;;;;;;;11.57;3.63;;;16.20;50.00;;;;;;5054761;28;20045;-75
2022/03/12 07:04:21;;;;;;;10.13;3.33;;;16.30;50.10;;;;;;5037716;28;20049;-76
2022/03/12 07:06:48;;;;;;;8.95;3.60;;;16.40;50.30;;;;;;5054790;28;20100;-74
2022/03/12 07:09:14;;;;;;;10.82;4.15;;;16.50;49.80;;;;;;5054015;28;20045;-76
2022/03/12 07:11:39;;;;;;;8.95;3.50;;;16.60;49.70;;;;;;5054911;28;20455;-76
2022/03/12 07:14:05;;;;;;;6.32;3.67;;;16.70;49.50;;;;;;5054769;28;20140;-73
2022/03/12 07:16:31;;;;;;;11.77;4.07;;;16.80;49.40;;;;;;5037696;28;20340;-76
2022/03/12 07:18:57;;;;;;;8.50;3.33;;;16.80;49.50;;;;;;5037615;28;20056;-76
2022/03/12 07:21:24;;;;;;;15.90;3.70;;;16.90;49.60;;;;;;5037259;28;20056;-75
2022/03/12 07:23:50;;;;;;;8.23;3.70;;;17.00;49.60;;;;;;5054677;28;20127;-81
2022/03/12 07:26:16;;;;;;;13.55;4.25;;;17.00;50.40;;;;;;5063116;28;20036;-77
2022/03/12 07:28:42;;;;;;;8.30;3.30;;;16.80;47.00;;;;;;5094572;28;20410;-77
2022/03/12 07:31:08;;;;;;;9.88;3.80;;;16.90;49.30;;;;;;5094660;28;20075;-79
2022/03/12 07:33:34;;;;;;;10.68;3.45;;;17.00;49.30;;;;;;5094855;28;20425;-81
2022/03/12 07:36:00;;;;;;;7.00;3.38;;;17.00;49.40;;;;;;5095889;28;20040;-74
2022/03/12 07:38:26;;;;;;;10.45;3.15;;;17.10;49.30;;;;;;5098182;28;20043;-75
2022/03/12 07:40:51;;;;;;;9.05;3.53;;;17.20;49.30;;;;;;5097887;28;20348;-75
2022/03/12 07:43:17;;;;;;;8.73;3.58;;;17.20;49.20;;;;;;5098709;28;20374;-76
2022/03/12 07:45:44;;;;;;;10.95;3.25;;;17.30;49.20;;;;;;5098573;28;20485;-76
2022/03/12 07:48:10;;;;;;;8.73;3.00;;;17.30;49.20;;;;;;5080576;28;20051;-76
2022/03/12 07:50:36;;;;;;;14.55;3.10;;;17.30;49.30;;;;;;5098326;28;20048;-77
2022/03/12 07:53:02;;;;;;;7.35;3.60;;;17.30;49.50;;;;;;5086483;28;20063;-78
2022/03/12 07:55:28;;;;;;;8.32;3.20;;;17.30;48.30;;;;;;5065074;28;20048;-77
2022/03/12 07:57:54;;;;;;;8.38;3.63;;;17.30;49.40;;;;;;5073570;28;20045;-75
2022/03/12 08:00:19;;;;;;;8.25;3.65;;;17.30;49.40;;;;;;5075808;28;20079;-73
2022/03/12 08:02:47;;;;;;;10.02;3.85;;;17.30;49.20;;;;;;5077071;28;20463;-76
2022/03/12 08:05:16;;;;;;;10.82;3.80;;;17.30;49.40;;;;;;5054823;28;20129;-76
2022/03/12 08:07:42;;;;;;;8.27;3.33;;;17.30;49.40;;;;;;5077346;28;20091;-74
2022/03/12 08:10:09;;;;;;;9.30;3.35;;;17.30;49.40;;;;;;5056061;28;20206;-74
2022/03/12 08:12:35;;;;;;;10.40;3.58;;;17.30;49.60;;;;;;5076476;28;20044;-74
2022/03/12 08:15:03;;;;;;;9.52;3.78;;;17.40;49.70;;;;;;5075577;28;20119;-76
2022/03/12 08:17:29;;;;;;;7.63;3.50;;;17.40;49.80;;;;;;5072386;28;20044;-76
2022/03/12 08:19:55;;;;;;;7.20;3.50;;;17.40;49.70;;;;;;5077006;28;20041;-75
2022/03/12 08:22:21;;;;;;;7.03;3.58;;;17.40;49.70;;;;;;5077138;28;20040;-74
2022/03/12 08:24:47;;;;;;;7.93;3.45;;;17.40;49.50;;;;;;5076611;28;20049;-75
2022/03/12 08:27:14;;;;;;;6.80;3.28;;;17.40;49.40;;;;;;5055438;28;20055;-76
2022/03/12 08:29:43;;;;;;;9.73;3.17;;;17.40;49.30;;;;;;5075656;28;20095;-76
2022/03/12 08:32:09;;;;;;;9.32;3.35;;;17.50;49.30;;;;;;5076707;28;20048;-76
2022/03/12 08:34:38;;;;;;;7.60;3.22;;;17.40;49.20;;;;;;5076888;28;20052;-72
2022/03/12 08:37:06;;;;;;;7.65;3.17;;;17.40;49.10;;;;;;5069982;28;20345;-76
2022/03/12 08:39:32;;;;;;;8.95;3.60;;;17.40;48.80;;;;;;5072807;28;20079;-78
2022/03/12 08:41:58;;;;;;;6.25;3.25;;;17.50;48.80;;;;;;5056199;28;20136;-76
2022/03/12 08:44:24;;;;;;;9.80;3.88;;;17.50;48.80;;;;;;5056663;28;20403;-77
2022/03/12 08:46:49;;;;;;;7.32;3.20;;;17.50;48.90;;;;;;5055217;28;20042;-77
2022/03/12 08:49:16;;;;;;;12.23;3.80;;;17.50;49.00;;;;;;5056138;28;20041;-78
2022/03/12 08:51:42;;;;;;;7.43;3.05;;;17.40;49.10;;;;;;5057098;28;20045;-80
2022/03/12 08:54:09;;;;;;;8.60;3.60;;;17.40;49.20;;;;;;5022566;28;20037;-76
2022/03/12 08:56:35;;;;;;;10.45;3.63;;;17.50;49.30;;;;;;5056703;28;20103;-75
2022/03/12 08:59:04;;;;;;;12.82;3.80;;;17.50;49.30;;;;;;5045026;28;20415;-75
2022/03/12 09:01:31;;;;;;;9.57;3.85;;;17.50;49.60;;;;;;5049989;28;20052;-75
2022/03/12 09:03:57;;;;;;;6.32;2.80;;;17.50;49.90;;;;;;5036666;28;20089;-78
2022/03/12 09:06:27;;;;;;;7.28;3.40;;;17.40;49.80;;;;;;5030449;28;20420;-77
2022/03/12 09:08:53;;;;;;;8.27;3.08;;;17.40;49.90;;;;;;5056283;28;20516;-76
2022/03/12 09:11:22;;;;;;;9.32;3.65;;;17.50;50.00;;;;;;5056004;28;20468;-80
2022/03/12 09:13:48;;;;;;;14.55;3.30;;;17.40;50.10;;;;;;5039005;28;20476;-76
2022/03/12 09:16:17;;;;;;;11.43;3.30;;;17.50;50.50;;;;;;5038750;28;20045;-75
2022/03/12 09:18:46;;;;;;;9.05;3.58;;;17.50;50.30;;;;;;5056339;28;20049;-75
2022/03/12 09:21:12;;;;;;;6.65;3.17;;;17.40;50.30;;;;;;5056885;28;20075;-76
2022/03/12 09:23:38;;;;;;;18.20;3.80;;;17.40;50.50;;;;;;5055761;28;20084;-76
2022/03/12 09:26:05;;;;;;;7.95;3.72;;;17.40;50.80;;;;;;5058959;28;20095;-74
2022/03/12 09:28:31;;;;;;;7.30;3.75;;;17.50;51.20;;;;;;5076008;28;20120;-77
2022/03/12 09:30:57;;;;;;;7.10;3.60;;;17.40;51.30;;;;;;5076235;28;20119;-73
2022/03/12 09:33:23;;;;;;;8.48;3.17;;;17.30;51.20;;;;;;5076218;28;20036;-72
2022/03/12 09:35:50;;;;;;;15.15;3.70;;;17.30;51.50;;;;;;5075977;28;20103;-72
2022/03/12 09:38:16;;;;;;;7.07;3.60;;;17.30;51.40;;;;;;5075767;28;20084;-79
2022/03/12 09:40:46;;;;;;;9.27;4.22;;;17.30;51.90;;;;;;5085790;28;20067;-81
2022/03/12 09:43:51;;;;;;;10.18;4.03;;;17.40;51.60;;;;;;5069407;28;20059;-81
2022/03/12 09:46:20;;;;;;;7.07;4.53;;;17.40;51.10;;;;;;5041323;28;20036;-80
2022/03/12 09:48:46;;;;;;;9.57;4.70;;;17.40;50.50;;;;;;5041516;28;20482;-80
2022/03/12 09:51:12;;;;;;;8.40;5.45;;;17.40;50.20;;;;;;5075222;28;20060;-80
2022/03/12 09:53:38;;;;;;;10.00;4.90;;;17.40;49.80;;;;;;5041027;28;20048;-77
2022/03/12 09:56:16;;;;;;;7.40;5.07;;;17.50;49.50;;;;;;5058267;28;20055;-82
2022/03/12 09:58:45;;;;;;;7.70;5.07;;;17.50;49.10;;;;;;5057784;28;20080;-80
2022/03/12 10:01:11;;;;;;;5.78;4.47;;;17.50;49.10;;;;;;5074883;28;20119;-74
2022/03/12 10:03:42;;;;;;;7.85;4.75;;;17.50;48.80;;;;;;5075801;28;20036;-77
2022/03/12 10:06:07;;;;;;;11.10;5.57;;;17.50;48.80;;;;;;5075588;28;20048;-74
2022/03/12 10:08:33;;;;;;;9.30;4.30;;;17.50;49.00;;;;;;5075094;28;20478;-74
2022/03/12 10:10:59;;;;;;;8.18;4.57;;;17.50;49.30;;;;;;5058052;28;20452;-74
2022/03/12 10:13:25;;;;;;;6.50;3.90;;;17.50;49.60;;;;;;5075540;28;20052;-74
2022/03/12 10:15:51;;;;;;;9.02;4.45;;;17.50;50.00;;;;;;5075592;28;20439;-74
2022/03/12 10:18:20;;;;;;;9.52;3.78;;;17.50;50.30;;;;;;5075899;28;20153;-72
2022/03/12 10:20:46;;;;;;;9.88;4.07;;;17.40;50.50;;;;;;5075399;28;20082;-74
2022/03/12 10:23:12;;;;;;;11.95;3.78;;;17.40;50.80;;;;;;5075395;28;20060;-74
2022/03/12 10:25:39;;;;;;;13.57;4.13;;;17.40;51.00;;;;;;5074939;28;20056;-74
2022/03/12 10:28:05;;;;;;;10.95;4.05;;;17.40;51.10;;;;;;5094685;28;20144;-73
2022/03/12 10:30:31;;;;;;;10.65;3.28;;;17.30;51.20;;;;;;5094554;28;20056;-73
2022/03/12 10:32:57;;;;;;;10.05;3.63;;;17.30;51.40;;;;;;5076720;28;20131;-74
2022/03/12 10:35:24;;;;;;;8.25;3.55;;;17.30;51.50;;;;;;5075096;28;20041;-73
2022/03/12 10:37:53;;;;;;;10.05;3.55;;;17.30;51.80;;;;;;5072635;28;20359;-72
2022/03/12 10:40:24;;;;;;;8.45;3.10;;;17.30;51.90;;;;;;5074771;28;20048;-73
2022/03/12 10:42:51;;;;;;;5.80;3.15;;;17.30;51.90;;;;;;5074844;28;20049;-72
2022/03/12 10:45:21;;;;;;;8.75;3.63;;;17.30;52.10;;;;;;5057498;28;20055;-73
2022/03/12 10:47:53;;;;;;;5.78;3.13;;;17.20;52.10;;;;;;5073320;28;20063;-72
2022/03/12 10:50:28;;;;;;;7.88;3.38;;;17.20;52.20;;;;;;5072716;28;20044;-73
2022/03/12 10:52:58;;;;;;;10.80;3.33;;;17.20;52.30;;;;;;5051300;28;20049;-73
2022/03/12 10:55:26;;;;;;;12.45;3.10;;;17.30;52.60;;;;;;5068040;28;20040;-72
2022/03/12 10:58:15;;;;;;;11.30;3.08;;;17.30;52.60;;;;;;5073521;28;20047;-72
2022/03/12 11:00:48;;;;;;;7.43;3.03;;;17.30;51.80;;;;;;5064020;28;20122;-73
2022/03/12 11:03:25;;;;;;;;;;;17.20;52.30;;;;;;5074667;28;20067;-73
2022/03/12 11:05:54;;;;;;;7.07;2.88;;;17.20;52.70;;;;;;5074258;28;19931;-73
2022/03/12 11:08:27;;;;;;;8.18;3.13;;;17.20;52.40;;;;;;5074418;28;20041;-73
2022/03/12 11:10:59;;;;;;;7.03;2.35;;;17.30;52.50;;;;;;5075189;28;20082;-73
2022/03/12 11:13:30;;;;;;;7.85;2.35;;;17.30;52.20;;;;;;5078821;28;20052;-73
2022/03/12 11:16:07;;;;;;;6.60;2.67;;;17.30;52.30;;;;;;5078623;28;20462;-72
2022/03/12 11:18:34;;;;;;;8.43;2.95;;;17.30;52.20;;;;;;5079085;28;20060;-72
2022/03/12 11:21:01;;;;;;;6.00;2.50;;;17.20;51.70;;;;;;5078178;28;20052;-72
2022/03/12 11:23:30;;;;;;;7.82;2.53;;;17.20;52.20;;;;;;5078453;28;20055;-71
2022/03/12 11:26:05;;;;;;;5.80;2.00;;;17.30;52.30;;;;;;5078539;28;20099;-80
2022/03/12 11:28:35;;;;;;;8.52;2.63;;;17.30;52.30;;;;;;5053288;28;20127;-72
2022/03/12 11:31:04;;;;;;;5.20;2.42;;;17.30;52.40;;;;;;5077986;28;20051;-71
2022/03/12 11:33:29;;;;;;;9.90;2.15;;;17.30;52.30;;;;;;5078514;28;20127;-72
2022/03/12 11:36:00;;;;;;;9.32;1.95;;;17.30;52.30;;;;;;5078661;28;20186;-71
2022/03/12 11:38:27;;;;;;;6.65;1.73;;;17.40;52.40;;;;;;5078277;28;20044;-72
2022/03/12 11:41:20;;;;;;;6.00;2.10;;;17.40;52.40;;;;;;5077587;28;20135;-72
2022/03/12 11:43:47;;;;;;;6.85;2.28;;;17.40;52.40;;;;;;5078228;28;20048;-71
2022/03/12 11:46:15;;;;;;;10.48;2.40;;;17.40;52.40;;;;;;5077927;28;20053;-76
2022/03/12 11:48:41;;;;;;;6.93;1.77;;;17.40;52.70;;;;;;5077759;28;20044;-72
2022/03/12 11:51:22;;;;;;;8.43;2.50;;;17.40;52.70;;;;;;5077412;28;20098;-72
2022/03/12 11:53:48;;;;;;;5.05;1.60;;;17.30;52.60;;;;;;5077926;28;20048;-72
2022/03/12 11:56:17;;;;;;;8.57;1.90;;;17.40;52.70;;;;;;5060071;28;20095;-72
2022/03/12 11:58:44;;;;;;;9.27;2.10;;;17.40;52.70;;;;;;5077772;28;20040;-70
2022/03/12 12:01:11;;;;;;;7.10;1.88;;;17.40;52.80;;;;;;5078222;28;20394;-72
2022/03/12 12:03:37;;;;;;;6.50;1.38;;;17.40;52.70;;;;;;5077944;28;20071;-73
2022/03/12 12:06:02;;;;;;;8.10;2.03;;;17.30;52.60;;;;;;5077962;28;20045;-72
2022/03/12 12:08:28;;;;;;;12.02;1.85;;;17.40;52.70;;;;;;5074472;28;20084;-73
2022/03/12 12:10:54;;;;;;;6.53;1.90;;;17.40;52.70;;;;;;5077525;28;20436;-72
2022/03/12 12:13:21;;;;;;;6.88;1.70;;;17.40;52.70;;;;;;5077363;28;20051;-72
2022/03/12 12:15:47;;;;;;;7.13;1.52;;;17.40;52.70;;;;;;5077823;28;20047;-73
2022/03/12 12:18:13;;;;;;;3.72;1.42;;;17.40;52.70;;;;;;5077394;28;20459;-72
2022/03/12 12:20:41;;;;;;;6.25;1.13;;;17.40;52.80;;;;;;5074230;28;20048;-71
2022/03/12 12:23:12;;;;;;;6.28;2.10;;;17.40;52.90;;;;;;5076239;28;20080;-74
2022/03/12 12:25:39;;;;;;;4.72;1.33;;;17.40;53.00;;;;;;5077369;28;20129;-72
2022/03/12 12:28:19;;;;;;;4.90;1.80;;;17.40;52.80;;;;;;5057674;28;20426;-72
2022/03/12 12:30:47;;;;;;;6.55;1.70;;;17.40;52.80;;;;;;5057322;28;20364;-72
2022/03/12 12:33:26;;;;;;;8.68;1.40;;;17.40;52.60;;;;;;5057033;28;20401;-72
2022/03/12 12:36:10;;;;;;;3.95;1.35;;;17.30;52.50;;;;;;5053501;28;20359;-72
2022/03/12 12:38:39;;;;;;;6.03;1.85;;;17.30;52.20;;;;;;5077039;28;20079;-73
2022/03/12 12:41:06;;;;;;;5.43;1.50;;;17.30;52.40;;;;;;5059491;28;20055;-72
2022/03/12 12:43:33;;;;;;;4.53;1.38;;;17.40;52.30;;;;;;5077050;28;20044;-73
2022/03/12 12:46:12;;;;;;;5.03;1.50;;;17.40;52.30;;;;;;5076913;28;20451;-72
2022/03/12 12:48:47;;;;;;;4.63;1.50;;;17.40;52.20;;;;;;5076715;28;20531;-72
2022/03/12 12:51:19;;;;;;;5.20;1.23;;;17.40;52.10;;;;;;5077444;28;20045;-72